Time;durP1;ratioP1;P1;durP2;ratioP2;P2;SDS_P1;SDS_P2;PMS_P1;PMS_P2;Temp;Humidity;BMP_temperature;BMP_pressure;BME280_temperature;BME280_humidity;BME280_pressure;Samples;Min_cycle;Max_cycle;Signal;HPM_P1;HPM_P2
2022/09/02 00:01:31;;;;;;;6.90;6.30;;;;;;;12.48;100.00;98225.41;5113794;28;20271;-78
2022/09/02 00:04:01;;;;;;;6.77;6.17;;;;;;;12.47;100.00;98229.03;5114504;28;20218;-78
2022/09/02 00:06:31;;;;;;;7.57;6.70;;;;;;;12.45;100.00;98227.44;5116215;28;20281;-78
2022/09/02 00:08:58;;;;;;;7.70;6.90;;;;;;;12.42;100.00;98220.56;5115403;28;20600;-78
2022/09/02 00:11:28;;;;;;;6.67;6.07;;;;;;;12.44;100.00;98223.09;5114391;28;20301;-78
2022/09/02 00:13:55;;;;;;;8.37;7.20;;;;;;;12.40;100.00;98213.72;5116116;28;20480;-78
2022/09/02 00:16:23;;;;;;;7.60;6.90;;;;;;;12.40;100.00;98211.91;5116096;28;20267;-78
2022/09/02 00:18:52;;;;;;;7.37;6.60;;;;;;;12.36;100.00;98206.94;5114980;28;20228;-79
2022/09/02 00:21:20;;;;;;;7.03;6.43;;;;;;;12.35;100.00;98210.56;5108746;28;20250;-78
2022/09/02 00:23:49;;;;;;;7.10;6.40;;;;;;;12.32;100.00;98202.81;5115623;28;20230;-78
2022/09/02 00:26:17;;;;;;;7.10;6.50;;;;;;;12.33;100.00;98213.31;5115098;28;20567;-78
2022/09/02 00:28:45;;;;;;;6.80;6.10;;;;;;;12.30;100.00;98212.69;5112927;28;20307;-79
2022/09/02 00:31:12;;;;;;;7.07;6.37;;;;;;;12.33;100.00;98202.72;5114265;28;20224;-78
2022/09/02 00:33:39;;;;;;;6.90;6.30;;;;;;;12.31;100.00;98203.78;5115654;28;20257;-78
2022/09/02 00:36:06;;;;;;;6.37;5.80;;;;;;;12.30;100.00;98199.44;5115604;28;20232;-78
2022/09/02 00:38:35;;;;;;;6.63;6.03;;;;;;;12.30;100.00;98202.09;5114133;28;20652;-79
2022/09/02 00:41:07;;;;;;;7.00;6.37;;;;;;;12.31;100.00;98198.50;5114780;28;20226;-78
2022/09/02 00:43:43;;;;;;;6.60;6.00;;;;;;;12.29;100.00;98195.13;5115418;28;20592;-78
2022/09/02 00:46:12;;;;;;;6.70;6.10;;;;;;;12.28;100.00;98198.72;5115299;28;20285;-78
2022/09/02 00:48:41;;;;;;;6.90;6.30;;;;;;;12.21;100.00;98192.19;5112524;28;20242;-78
2022/09/02 00:51:08;;;;;;;6.40;5.80;;;;;;;12.22;100.00;98199.19;5115069;28;20258;-78
2022/09/02 00:53:38;;;;;;;6.63;6.03;;;;;;;12.14;100.00;98191.81;5115249;28;20264;-78
2022/09/02 00:56:11;;;;;;;6.83;6.00;;;;;;;12.12;100.00;98182.28;5113544;28;20232;-78
2022/09/02 00:58:40;;;;;;;6.80;6.20;;;;;;;12.07;100.00;98192.38;5101155;28;20669;-78
2022/09/02 01:01:07;;;;;;;8.17;6.53;;;;;;;12.04;100.00;98195.25;5115024;28;20262;-78
2022/09/02 01:03:34;;;;;;;6.97;6.37;;;;;;;12.00;100.00;98191.13;5115143;28;20222;-77
2022/09/02 01:06:02;;;;;;;6.80;6.20;;;;;;;11.98;100.00;98190.41;5114270;28;20293;-78
2022/09/02 01:08:32;;;;;;;6.50;5.90;;;;;;;11.99;100.00;98192.09;5113376;28;20281;-77
2022/09/02 01:10:59;;;;;;;7.20;6.50;;;;;;;12.00;100.00;98188.47;5114876;28;20228;-78
2022/09/02 01:13:30;;;;;;;7.33;6.73;;;;;;;11.96;100.00;98190.53;5114995;28;20226;-78
2022/09/02 01:16:11;;;;;;;6.90;6.20;;;;;;;11.88;100.00;98199.97;5113467;28;20531;-77
2022/09/02 01:18:39;;;;;;;6.57;5.90;;;;;;;11.85;100.00;98201.03;5089377;28;20276;-78
2022/09/02 01:21:06;;;;;;;7.20;6.50;;;;;;;11.81;100.00;98199.56;5112996;28;20225;-77
2022/09/02 01:23:35;;;;;;;6.80;6.07;;;;;;;11.75;100.00;98186.78;5101558;28;20277;-77
2022/09/02 01:26:03;;;;;;;7.67;6.93;;;;;;;11.73;100.00;98194.00;5097949;28;20297;-78
2022/09/02 01:28:32;;;;;;;7.03;6.30;;;;;;;11.73;100.00;98191.34;5114632;28;20269;-77
2022/09/02 01:30:59;;;;;;;7.67;6.97;;;;;;;11.66;100.00;98194.53;5114699;28;20654;-78
2022/09/02 01:33:26;;;;;;;7.37;6.67;;;;;;;11.64;100.00;98192.03;5114687;28;20264;-77
2022/09/02 01:35:53;;;;;;;7.30;6.60;;;;;;;11.60;100.00;98195.00;5111957;28;20233;-78
2022/09/02 01:38:23;;;;;;;6.70;6.10;;;;;;;11.58;100.00;98197.78;5113843;28;20254;-77
2022/09/02 01:40:51;;;;;;;7.23;6.53;;;;;;;11.63;100.00;98192.97;5114676;28;20567;-77
2022/09/02 01:43:21;;;;;;;7.07;6.40;;;;;;;11.61;100.00;98191.41;5114526;28;20636;-78
2022/09/02 01:45:49;;;;;;;7.20;6.50;;;;;;;11.61;100.00;98194.06;5112652;28;20529;-77
2022/09/02 01:48:16;;;;;;;6.70;6.10;;;;;;;11.64;100.00;98188.53;5112827;28;20249;-78
2022/09/02 01:50:46;;;;;;;7.03;6.43;;;;;;;11.64;100.00;98194.69;5114531;28;20227;-77
2022/09/02 01:53:14;;;;;;;6.87;6.17;;;;;;;11.64;100.00;98191.19;5113650;28;20713;-77
2022/09/02 01:55:41;;;;;;;6.37;5.77;;;;;;;11.63;100.00;98189.50;5112767;28;20233;-78
2022/09/02 01:58:09;;;;;;;6.10;5.50;;;;;;;11.64;100.00;98192.03;5114506;28;20249;-78
2022/09/02 02:00:36;;;;;;;6.60;6.00;;;;;;;11.66;100.00;98191.91;5114514;28;20226;-78
2022/09/02 02:03:03;;;;;;;6.47;5.50;;;;;;;11.70;100.00;98191.59;5113753;28;20268;-78
2022/09/02 02:05:30;;;;;;;5.90;5.27;;;;;;;11.68;100.00;98192.66;5097866;28;20222;-78
2022/09/02 02:07:57;;;;;;;6.27;5.33;;;;;;;11.66;100.00;98194.53;5096652;28;20250;-78
2022/09/02 02:10:24;;;;;;;6.07;5.47;;;;;;;11.66;100.00;98197.19;5106947;28;20264;-78
2022/09/02 02:12:51;;;;;;;5.73;5.23;;;;;;;11.62;100.00;98183.34;5112463;28;20230;-77
2022/09/02 02:15:20;;;;;;;5.60;5.10;;;;;;;11.68;100.00;98182.06;5111983;28;20229;-77
2022/09/02 02:17:47;;;;;;;5.83;5.00;;;;;;;11.70;100.00;98182.78;5114395;28;20215;-77
2022/09/02 02:20:16;;;;;;;5.50;5.00;;;;;;;11.68;100.00;98193.47;5112184;28;20249;-78
2022/09/02 02:22:43;;;;;;;5.53;5.00;;;;;;;11.69;100.00;98191.69;5110369;28;20271;-77
2022/09/02 02:25:10;;;;;;;5.77;5.27;;;;;;;11.60;100.00;98187.91;5112474;28;20283;-77
2022/09/02 02:27:37;;;;;;;5.20;4.80;;;;;;;11.57;100.00;98187.25;5114129;28;20229;-77
2022/09/02 02:30:06;;;;;;;5.70;5.10;;;;;;;11.57;100.00;98187.25;5114054;28;20222;-76
2022/09/02 02:32:34;;;;;;;5.87;5.33;;;;;;;11.50;100.00;98188.66;5113274;28;20222;-77
2022/09/02 02:35:02;;;;;;;5.63;5.10;;;;;;;11.48;100.00;98177.31;5112548;28;20273;-76
2022/09/02 02:37:29;;;;;;;6.07;5.57;;;;;;;11.49;100.00;98182.50;5114098;28;20230;-77
2022/09/02 02:39:56;;;;;;;6.30;5.70;;;;;;;11.52;100.00;98178.78;5112440;28;20227;-77
2022/09/02 02:42:23;;;;;;;7.00;6.40;;;;;;;11.52;100.00;98181.44;5113424;28;20539;-77
2022/09/02 02:44:49;;;;;;;7.83;7.13;;;;;;;11.47;100.00;98184.41;5112319;28;20227;-77
2022/09/02 02:47:16;;;;;;;7.13;6.53;;;;;;;11.47;100.00;98178.28;5114186;28;20226;-76
2022/09/02 02:49:44;;;;;;;6.80;6.20;;;;;;;11.46;100.00;98184.53;5115655;28;20250;-77
2022/09/02 02:52:13;;;;;;;6.53;5.93;;;;;;;11.41;100.00;98173.41;5117196;28;20253;-77
2022/09/02 02:54:40;;;;;;;7.17;6.47;;;;;;;11.38;100.00;98173.66;5116199;28;20229;-77
2022/09/02 02:57:08;;;;;;;6.30;5.73;;;;;;;11.31;100.00;98167.94;5117894;28;20275;-77
2022/09/02 02:59:35;;;;;;;6.87;6.13;;;;;;;11.28;100.00;98172.59;5117770;28;20222;-77
2022/09/02 03:02:02;;;;;;;5.90;5.40;;;;;;;11.28;100.00;98167.31;5116815;28;20531;-76
2022/09/02 03:04:29;;;;;;;6.30;5.70;;;;;;;11.32;100.00;98168.81;5115779;28;20292;-76
2022/09/02 03:06:57;;;;;;;6.03;5.40;;;;;;;11.34;100.00;98172.16;5115895;28;20236;-77
2022/09/02 03:09:24;;;;;;;6.30;5.70;;;;;;;11.29;100.00;98171.66;5117287;28;20314;-77
2022/09/02 03:11:51;;;;;;;5.90;5.30;;;;;;;11.28;100.00;98162.03;5116752;28;20273;-77
2022/09/02 03:14:18;;;;;;;6.03;5.30;;;;;;;11.30;100.00;98170.69;5113429;28;20509;-77
2022/09/02 03:16:44;;;;;;;6.50;5.77;;;;;;;11.28;100.00;98165.53;5099394;28;20229;-77
2022/09/02 03:19:12;;;;;;;5.77;5.03;;;;;;;11.29;100.00;98176.94;5102462;28;20278;-76
2022/09/02 03:21:40;;;;;;;5.03;4.63;;;;;;;11.25;100.00;98178.13;5099438;28;20218;-76
2022/09/02 03:24:09;;;;;;;5.27;4.87;;;;;;;11.22;100.00;98167.75;5114871;28;20231;-77
2022/09/02 03:26:36;;;;;;;5.30;4.80;;;;;;;11.22;100.00;98178.34;5116947;28;20623;-76
2022/09/02 03:29:03;;;;;;;5.13;4.63;;;;;;;11.18;100.00;98171.59;5116872;28;20332;-77
2022/09/02 03:31:29;;;;;;;4.97;4.57;;;;;;;11.12;100.00;98172.84;5114853;28;20226;-77
2022/09/02 03:33:56;;;;;;;5.47;4.97;;;;;;;11.10;100.00;98173.91;5114645;28;20223;-77
2022/09/02 03:36:25;;;;;;;5.03;4.53;;;;;;;11.12;100.00;98172.03;5116763;28;20231;-77
2022/09/02 03:38:52;;;;;;;5.30;4.63;;;;;;;11.13;100.00;98173.72;5116793;28;20226;-76
2022/09/02 03:41:20;;;;;;;5.70;4.57;;;;;;;11.11;100.00;98175.59;5116571;28;20222;-77
2022/09/02 03:43:47;;;;;;;4.80;4.40;;;;;;;11.04;100.00;98179.63;5114601;28;20222;-77
2022/09/02 03:46:14;;;;;;;5.37;4.67;;;;;;;11.03;100.00;98177.94;5116883;28;20222;-77
2022/09/02 03:48:40;;;;;;;5.23;4.73;;;;;;;11.03;100.00;98165.59;5116612;28;20307;-77
2022/09/02 03:51:08;;;;;;;5.10;4.70;;;;;;;11.02;100.00;98165.69;5116515;28;20262;-77
2022/09/02 03:53:34;;;;;;;4.97;4.57;;;;;;;11.02;100.00;98170.97;5111567;28;20262;-76
2022/09/02 03:56:05;;;;;;;5.03;4.63;;;;;;;11.01;100.00;98169.28;5116544;28;20226;-76
2022/09/02 03:58:34;;;;;;;6.07;4.80;;;;;;;10.96;100.00;98166.09;5114723;28;20274;-76
2022/09/02 04:01:01;;;;;;;7.67;4.93;;;;;;;11.00;100.00;98172.88;5115087;28;20233;-76
2022/09/02 04:03:28;;;;;;;5.50;5.00;;;;;;;10.99;100.00;98173.81;5114325;28;20629;-77
2022/09/02 04:05:55;;;;;;;4.87;4.47;;;;;;;10.99;100.00;98166.75;5116275;28;20563;-77
2022/09/02 04:08:22;;;;;;;4.93;4.53;;;;;;;10.94;100.00;98168.84;5116111;28;20311;-77
2022/09/02 04:10:49;;;;;;;4.83;4.43;;;;;;;10.90;100.00;98171.81;5115890;28;20690;-77
2022/09/02 04:13:16;;;;;;;5.47;4.93;;;;;;;10.91;100.00;98168.22;5113789;28;20280;-77
2022/09/02 04:15:47;;;;;;;5.53;5.03;;;;;;;10.87;100.00;98166.72;5116020;28;20669;-77
2022/09/02 04:21:38;;;;;;;5.70;4.70;;;;;;;10.75;100.00;98167.59;5096803;28;20213;-77
2022/09/02 04:24:08;;;;;;;5.40;4.90;;;;;;;10.73;100.00;98172.16;5114202;28;20222;-77
2022/09/02 04:26:35;;;;;;;5.03;4.60;;;;;;;10.70;100.00;98170.56;5115310;28;20226;-78
2022/09/02 04:29:01;;;;;;;5.17;4.70;;;;;;;10.70;100.00;98167.09;5113624;28;20282;-77
2022/09/02 04:31:30;;;;;;;5.20;4.80;;;;;;;10.67;100.00;98164.63;5115856;28;20350;-77
2022/09/02 04:33:57;;;;;;;5.00;4.60;;;;;;;10.68;100.00;98171.59;5110499;28;20280;-78
2022/09/02 04:36:25;;;;;;;5.00;4.60;;;;;;;10.65;100.00;98161.25;5111710;28;20696;-77
2022/09/02 04:38:52;;;;;;;5.17;4.63;;;;;;;10.65;100.00;98161.25;5113668;28;20250;-77
2022/09/02 04:41:23;;;;;;;4.80;4.40;;;;;;;10.64;100.00;98155.13;5115483;28;20262;-76
2022/09/02 04:43:50;;;;;;;5.27;4.77;;;;;;;10.64;100.00;98157.75;5115446;28;20279;-77
2022/09/02 04:46:17;;;;;;;5.03;4.63;;;;;;;10.60;100.00;98158.94;5114663;28;20230;-77
2022/09/02 04:48:47;;;;;;;5.23;4.77;;;;;;;10.61;100.00;98159.78;5113442;28;20273;-76
2022/09/02 04:51:16;;;;;;;5.53;5.03;;;;;;;10.63;100.00;98155.22;5114747;28;20227;-76
2022/09/02 04:53:43;;;;;;;5.97;5.37;;;;;;;10.67;100.00;98154.06;5115541;28;20316;-76
2022/09/02 04:56:14;;;;;;;5.97;5.37;;;;;;;10.69;100.00;98157.44;5114403;28;20313;-77
2022/09/02 04:58:43;;;;;;;5.83;5.33;;;;;;;10.68;100.00;98155.75;5115070;28;20380;-76
2022/09/02 05:01:12;;;;;;;5.50;5.00;;;;;;;10.71;100.00;98155.56;5115476;28;20226;-77
2022/09/02 05:03:39;;;;;;;5.83;5.33;;;;;;;10.77;100.00;98169.19;5115543;28;20240;-77
2022/09/02 05:06:10;;;;;;;4.80;4.40;;;;;;;10.78;100.00;98156.81;5113427;28;20342;-77
2022/09/02 05:08:37;;;;;;;5.03;4.63;;;;;;;10.81;100.00;98169.81;5087953;28;20275;-76
2022/09/02 05:11:05;;;;;;;4.63;4.23;;;;;;;10.83;100.00;98167.94;5115358;28;20225;-76
2022/09/02 05:13:32;;;;;;;4.93;4.53;;;;;;;10.85;100.00;98166.00;5115175;28;20476;-76
2022/09/02 05:15:59;;;;;;;5.00;4.53;;;;;;;10.88;100.00;98166.63;5111165;28;20271;-76
2022/09/02 05:18:25;;;;;;;4.80;4.40;;;;;;;10.95;100.00;98164.44;5087521;28;20552;-76
2022/09/02 05:20:52;;;;;;;4.90;4.50;;;;;;;11.02;100.00;98161.22;5107961;28;20220;-76
2022/09/02 05:23:20;;;;;;;5.00;4.60;;;;;;;11.06;100.00;98167.16;5109147;28;20395;-76
2022/09/02 05:25:47;;;;;;;5.30;4.60;;;;;;;11.10;100.00;98164.19;5115374;28;20233;-76
2022/09/02 05:28:14;;;;;;;4.90;4.40;;;;;;;11.17;100.00;98168.09;5101293;28;20222;-76
2022/09/02 05:30:42;;;;;;;6.23;4.60;;;;;;;11.18;100.00;98167.13;5114964;28;20242;-76
2022/09/02 05:33:10;;;;;;;4.40;4.00;;;;;;;11.27;100.00;98170.94;5115025;28;20226;-76
2022/09/02 05:35:40;;;;;;;5.30;4.80;;;;;;;11.35;100.00;98173.84;5112921;28;20226;-77
2022/09/02 05:38:07;;;;;;;5.53;4.70;;;;;;;11.45;100.00;98166.97;5087635;28;20226;-76
2022/09/02 05:40:36;;;;;;;4.93;4.43;;;;;;;11.60;100.00;98165.88;5114777;28;20356;-77
2022/09/02 05:43:03;;;;;;;5.53;5.03;;;;;;;11.76;100.00;98162.00;5113248;28;20387;-77
2022/09/02 05:45:30;;;;;;;5.83;4.83;;;;;;;11.91;100.00;98165.31;5112157;28;20260;-76
2022/09/02 05:47:57;;;;;;;4.73;4.10;;;;;;;12.05;100.00;98160.69;5087535;28;20276;-77
2022/09/02 05:50:23;;;;;;;5.00;4.50;;;;;;;12.19;100.00;98162.31;5107658;28;20270;-76
2022/09/02 05:52:51;;;;;;;4.77;4.37;;;;;;;12.37;100.00;98159.13;5114948;28;20331;-76
2022/09/02 05:55:18;;;;;;;4.70;4.30;;;;;;;12.57;100.00;98168.19;5112330;28;20298;-76
2022/09/02 05:57:46;;;;;;;4.30;3.90;;;;;;;12.69;100.00;98167.25;5114467;28;20256;-76
2022/09/02 06:00:13;;;;;;;4.83;4.33;;;;;;;12.81;100.00;98161.00;5114938;28;20230;-77
2022/09/02 06:02:40;;;;;;;4.90;4.50;;;;;;;12.95;100.00;98172.25;5114745;28;20226;-76
2022/09/02 06:05:10;;;;;;;4.83;4.33;;;;;;;13.10;100.00;98168.44;5112421;28;20255;-77
2022/09/02 06:07:37;;;;;;;4.97;4.47;;;;;;;13.26;100.00;98163.56;5085824;28;20231;-76
2022/09/02 06:10:06;;;;;;;6.40;4.50;;;;;;;13.38;100.00;98164.44;5114473;28;20243;-77
2022/09/02 06:12:33;;;;;;;4.50;3.80;;;;;;;13.48;100.00;98179.50;5114439;28;20237;-76
2022/09/02 06:15:01;;;;;;;4.60;4.20;;;;;;;13.58;100.00;98174.28;5112189;28;20225;-77
2022/09/02 06:17:28;;;;;;;4.83;3.83;;;;;;;13.72;100.00;98166.03;5085011;28;20255;-77
2022/09/02 06:19:55;;;;;;;4.27;3.70;;;;;;;13.86;100.00;98163.09;5114596;28;20488;-77
2022/09/02 06:22:21;;;;;;;3.90;3.60;;;;;;;13.96;100.00;98169.34;5109532;28;20221;-77
2022/09/02 06:24:48;;;;;;;4.13;3.60;;;;;;;14.09;100.00;98175.34;5113684;28;20260;-76
2022/09/02 06:27:15;;;;;;;4.40;4.00;;;;;;;14.21;100.00;98164.59;5118171;28;20611;-76
2022/09/02 06:29:41;;;;;;;3.87;3.57;;;;;;;14.26;98.75;98161.53;5118282;28;20249;-77
2022/09/02 06:32:09;;;;;;;4.10;3.70;;;;;;;14.38;99.16;98163.16;5118412;28;20224;-77
2022/09/02 06:34:38;;;;;;;3.93;3.63;;;;;;;14.50;97.22;98160.34;5114525;28;20228;-76
2022/09/02 06:37:05;;;;;;;3.63;3.30;;;;;;;14.60;95.90;98155.09;5117860;28;20591;-76
2022/09/02 06:39:32;;;;;;;3.73;3.30;;;;;;;14.73;93.85;98156.53;5117943;28;20267;-76
2022/09/02 06:41:58;;;;;;;3.60;3.30;;;;;;;14.81;94.75;98163.88;5118211;28;20224;-76
2022/09/02 06:44:25;;;;;;;4.20;3.50;;;;;;;14.91;92.60;98156.81;5115909;28;20272;-73
2022/09/02 06:46:57;;;;;;;3.40;3.10;;;;;;;15.01;92.23;98166.53;5117179;28;20270;-72
2022/09/02 06:49:27;;;;;;;3.47;3.17;;;;;;;15.14;92.96;98160.94;5117682;28;20245;-71
2022/09/02 06:51:55;;;;;;;3.77;3.37;;;;;;;15.24;92.94;98165.38;5117531;28;20257;-72
2022/09/02 06:54:23;;;;;;;3.70;3.40;;;;;;;15.39;92.15;98168.56;5114977;28;20349;-71
2022/09/02 06:56:51;;;;;;;3.20;2.90;;;;;;;15.47;90.86;98168.72;5117593;28;20226;-72
2022/09/02 06:59:18;;;;;;;4.57;3.43;;;;;;;15.64;90.19;98170.72;5115771;28;20226;-70
2022/09/02 07:01:46;;;;;;;13.50;3.80;;;;;;;15.77;90.04;98165.97;5117587;28;20295;-71
2022/09/02 07:06:58;;;;;;;3.73;3.43;;;;;;;16.07;88.26;98157.91;5117550;28;20215;-71
2022/09/02 07:09:29;;;;;;;3.93;3.53;;;;;;;16.18;86.59;98164.78;5117128;28;20274;-71
2022/09/02 07:11:57;;;;;;;5.13;3.23;;;;;;;16.26;85.05;98156.91;5115433;28;20237;-71
2022/09/02 07:14:26;;;;;;;4.63;2.90;;;;;;;16.38;85.42;98163.81;5116685;28;20645;-73
2022/09/02 07:16:56;;;;;;;3.83;3.27;;;;;;;16.50;84.66;98159.16;5117255;28;20609;-72
2022/09/02 07:19:23;;;;;;;3.00;2.80;;;;;;;16.65;81.79;98153.25;5117170;28;20624;-72
2022/09/02 07:21:50;;;;;;;3.70;3.20;;;;;;;16.70;81.93;98153.66;5097361;28;20223;-72
2022/09/02 07:24:18;;;;;;;3.17;2.90;;;;;;;16.78;83.04;98155.63;5115483;28;20264;-72
2022/09/02 07:26:45;;;;;;;3.47;3.13;;;;;;;16.95;82.07;98153.03;5113948;28;20226;-71
2022/09/02 07:29:13;;;;;;;3.23;2.73;;;;;;;17.02;80.75;98154.13;5115508;28;20286;-70
2022/09/02 07:31:43;;;;;;;2.90;2.60;;;;;;;17.15;79.97;98149.34;5111659;28;20258;-70
2022/09/02 07:34:10;;;;;;;3.63;3.20;;;;;;;17.27;79.17;98148.16;5085597;28;20276;-71
2022/09/02 07:36:37;;;;;;;3.47;2.90;;;;;;;17.38;79.49;98145.31;5115159;28;20270;-71
2022/09/02 07:39:06;;;;;;;3.20;2.40;;;;;;;17.48;78.62;98145.28;5115126;28;20221;-71
2022/09/02 07:41:36;;;;;;;3.47;2.70;;;;;;;17.57;77.92;98145.25;5112608;28;20218;-71
2022/09/02 07:44:04;;;;;;;2.80;2.60;;;;;;;17.73;77.07;98142.75;5115290;28;20298;-71
2022/09/02 07:46:31;;;;;;;3.57;3.03;;;;;;;17.84;74.48;98142.53;5113501;28;20542;-72
2022/09/02 07:48:58;;;;;;;3.03;2.50;;;;;;;17.95;76.43;98145.00;5112579;28;20581;-72
2022/09/02 07:51:25;;;;;;;3.83;2.70;;;;;;;18.04;75.15;98146.75;5110085;28;20250;-71
2022/09/02 07:53:52;;;;;;;4.07;2.40;;;;;;;18.20;73.98;98138.91;5114812;28;20258;-70
2022/09/02 07:56:18;;;;;;;2.37;2.20;;;;;;;18.25;72.15;98138.44;5114884;28;20229;-70
2022/09/02 07:58:47;;;;;;;3.20;2.70;;;;;;;18.37;73.43;98135.41;5114857;28;20676;-70
2022/09/02 08:01:14;;;;;;;2.70;2.50;;;;;;;18.49;70.96;98136.84;5112247;28;20313;-70
2022/09/02 08:03:43;;;;;;;2.33;2.17;;;;;;;18.45;72.68;98137.28;5114976;28;20271;-70
2022/09/02 08:06:09;;;;;;;3.80;2.40;;;;;;;18.54;72.67;98137.19;5114889;28;20221;-70
2022/09/02 08:08:36;;;;;;;2.63;2.43;;;;;;;18.66;70.99;98141.31;5114736;28;20696;-71
2022/09/02 08:11:04;;;;;;;2.40;2.20;;;;;;;18.76;70.96;98135.88;5111929;28;20245;-70
2022/09/02 08:13:30;;;;;;;2.50;2.30;;;;;;;18.88;70.63;98140.81;5114620;28;20257;-71
2022/09/02 08:15:59;;;;;;;2.77;2.27;;;;;;;19.02;68.41;98134.88;5114563;28;20222;-71
2022/09/02 08:18:26;;;;;;;2.40;2.20;;;;;;;19.13;67.48;98133.78;5111246;28;20232;-71
2022/09/02 08:20:52;;;;;;;3.30;2.13;;;;;;;19.24;65.59;98136.19;5106096;28;20246;-71
2022/09/02 08:23:19;;;;;;;3.57;2.17;;;;;;;19.30;66.14;98141.78;5087192;28;20412;-71
2022/09/02 08:25:46;;;;;;;2.37;1.93;;;;;;;19.42;64.74;98132.47;5114399;28;20358;-71
2022/09/02 08:28:13;;;;;;;2.50;1.80;;;;;;;19.59;63.83;98126.16;5114261;28;20264;-71
2022/09/02 08:30:40;;;;;;;1.80;1.70;;;;;;;19.69;63.69;98134.91;5112019;28;20270;-71
2022/09/02 08:33:08;;;;;;;3.63;2.10;;;;;;;19.72;61.94;98131.91;5114159;28;20584;-70
2022/09/02 08:35:35;;;;;;;2.43;1.90;;;;;;;19.83;60.55;98138.81;5114254;28;20222;-71
2022/09/02 08:38:01;;;;;;;3.13;1.93;;;;;;;19.86;60.15;98133.94;5114117;28;20221;-71
2022/09/02 08:40:35;;;;;;;1.70;1.60;;;;;;;19.90;60.45;98135.31;5112181;28;20270;-71
2022/09/02 08:43:04;;;;;;;1.87;1.73;;;;;;;20.02;60.44;98141.19;5087424;28;20288;-70
2022/09/02 08:45:36;;;;;;;1.80;1.50;;;;;;;20.12;58.05;98132.00;5112589;28;20284;-72
2022/09/02 08:48:11;;;;;;;3.37;1.90;;;;;;;20.32;58.61;98122.66;5113475;28;20221;-72
2022/09/02 08:50:41;;;;;;;3.63;1.60;;;;;;;20.40;56.44;98128.03;5110633;28;20298;-71
2022/09/02 08:53:16;;;;;;;1.60;1.50;;;;;;;20.42;56.98;98126.00;5114257;28;20250;-70
2022/09/02 08:55:46;;;;;;;1.90;1.60;;;;;;;20.47;55.90;98120.97;5113983;28;20283;-71
2022/09/02 08:58:17;;;;;;;1.90;1.80;;;;;;;20.62;56.01;98122.00;5111384;28;20301;-70
2022/09/02 09:00:50;;;;;;;1.50;1.40;;;;;;;20.67;56.67;98119.63;5087098;28;20222;-71
2022/09/02 09:03:26;;;;;;;1.80;1.60;;;;;;;20.71;55.94;98120.13;5113788;28;20256;-71
2022/09/02 09:06:01;;;;;;;1.60;1.50;;;;;;;20.77;54.47;98117.63;5113045;28;20274;-71
2022/09/02 09:08:37;;;;;;;1.57;1.47;;;;;;;20.89;54.43;98113.59;5112975;28;20229;-71
2022/09/02 09:11:09;;;;;;;2.13;1.60;;;;;;;20.92;54.73;98107.06;5111958;28;20253;-70
2022/09/02 09:13:58;;;;;;;2.33;1.70;;;;;;;20.95;53.59;98112.91;5113542;28;20226;-71
2022/09/02 09:16:35;;;;;;;1.50;1.37;;;;;;;20.93;52.66;98106.88;5081918;28;20221;-70
2022/09/02 09:19:08;;;;;;;2.00;1.50;;;;;;;21.06;52.17;98109.88;5113516;28;20627;-71
2022/09/02 09:21:35;;;;;;;1.70;1.57;;;;;;;21.06;52.56;98107.19;5100181;28;20272;-71
2022/09/02 09:24:18;;;;;;;2.70;1.70;;;;;;;21.21;53.04;98102.75;5111391;28;20279;-71
2022/09/02 09:26:46;;;;;;;2.03;1.30;;;;;;;21.26;52.95;98095.03;5113427;28;20332;-71
2022/09/02 09:29:13;;;;;;;1.60;1.50;;;;;;;21.34;49.66;98092.28;5113108;28;20221;-71
2022/09/02 09:31:41;;;;;;;2.33;1.40;;;;;;;21.32;50.61;98094.34;5110816;28;20249;-72
2022/09/02 09:34:13;;;;;;;2.33;1.53;;;;;;;21.44;50.62;98092.94;5087276;28;20250;-72
2022/09/02 09:36:52;;;;;;;2.87;1.60;;;;;;;21.45;51.38;98089.22;5111492;28;20517;-72
2022/09/02 09:39:25;;;;;;;1.60;1.50;;;;;;;21.56;50.19;98085.31;5112500;28;20298;-72
2022/09/02 09:41:53;;;;;;;1.93;1.30;;;;;;;21.62;50.39;98085.47;5112366;28;20255;-72
2022/09/02 09:44:37;;;;;;;1.30;1.20;;;;;;;21.64;49.60;98083.44;5113057;28;20226;-71
2022/09/02 09:47:05;;;;;;;1.97;1.30;;;;;;;21.72;50.02;98079.91;5113077;28;20291;-72
2022/09/02 09:49:34;;;;;;;2.10;1.40;;;;;;;21.80;48.02;98080.69;5108330;28;20317;-72
2022/09/02 09:52:01;;;;;;;1.63;1.30;;;;;;;21.81;47.48;98074.28;5113063;28;20280;-70
2022/09/02 09:54:27;;;;;;;1.37;1.27;;;;;;;21.92;47.82;98060.44;5113084;28;20701;-70
2022/09/02 09:56:55;;;;;;;1.40;1.30;;;;;;;22.04;45.96;98071.63;5112974;28;20226;-70
2022/09/02 09:59:40;;;;;;;2.13;1.30;;;;;;;22.03;46.07;98062.72;5109227;28;20585;-70
2022/09/02 10:02:18;;;;;;;2.57;1.27;;;;;;;21.96;47.21;98061.75;5117202;28;20229;-71
2022/09/02 10:04:46;;;;;;;1.30;1.20;;;;;;;22.07;46.96;98064.00;5115378;28;20225;-70
2022/09/02 10:07:13;;;;;;;1.60;1.40;;;;;;;22.23;46.69;98063.91;5112053;28;20272;-70
2022/09/02 10:09:40;;;;;;;3.20;1.40;;;;;;;22.32;46.09;98064.69;5117045;28;20261;-70
2022/09/02 10:12:09;;;;;;;2.80;1.30;;;;;;;22.42;45.11;98059.88;5116838;28;20588;-70
2022/09/02 10:14:39;;;;;;;1.67;1.37;;;;;;;22.44;45.14;98064.09;5116808;28;20279;-70
2022/09/02 10:17:27;;;;;;;1.60;1.40;;;;;;;22.42;44.39;98052.63;5114524;28;20375;-70
2022/09/02 10:20:03;;;;;;;2.63;1.33;;;;;;;22.49;45.17;98058.19;5103856;28;20268;-71
2022/09/02 10:22:44;;;;;;;1.20;1.10;;;;;;;22.56;44.20;98054.56;5109296;28;20304;-71
2022/09/02 10:25:20;;;;;;;1.23;1.13;;;;;;;22.57;44.11;98056.25;5116336;28;20222;-71
2022/09/02 10:27:55;;;;;;;1.40;1.10;;;;;;;22.55;43.99;98052.06;5116671;28;20247;-70
2022/09/02 10:30:23;;;;;;;1.63;1.50;;;;;;;22.61;43.87;98057.53;5114852;28;20226;-70
2022/09/02 10:33:11;;;;;;;1.40;1.20;;;;;;;22.76;42.72;98044.94;5114276;28;20275;-70
2022/09/02 10:35:43;;;;;;;1.20;1.10;;;;;;;22.90;41.71;98040.56;5116503;28;20225;-71
2022/09/02 10:38:28;;;;;;;2.97;1.30;;;;;;;22.96;41.72;98042.53;5116490;28;20222;-71
2022/09/02 10:41:00;;;;;;;2.13;1.13;;;;;;;22.93;41.60;98042.91;5115547;28;20252;-70
2022/09/02 10:43:44;;;;;;;1.10;1.00;;;;;;;22.95;41.43;98039.00;5116327;28;20229;-71
2022/09/02 10:46:17;;;;;;;1.10;1.00;;;;;;;22.95;41.67;98030.91;5115659;28;20221;-70
2022/09/02 10:48:53;;;;;;;1.87;1.20;;;;;;;22.94;40.89;98037.34;5115494;28;20370;-70
2022/09/02 10:51:32;;;;;;;2.00;1.10;;;;;;;22.99;41.10;98029.50;5115937;28;20333;-71
2022/09/02 10:54:13;;;;;;;1.20;1.10;;;;;;;23.11;41.49;98021.81;5114917;28;20309;-70
2022/09/02 10:56:45;;;;;;;2.43;1.20;;;;;;;23.12;41.47;98013.53;5112894;28;20317;-70
2022/09/02 10:59:18;;;;;;;1.83;1.57;;;;;;;23.20;41.06;98013.47;5115000;28;20274;-71
2022/09/02 11:01:49;;;;;;;1.57;1.10;;;;;;;23.23;41.34;98015.78;5114881;28;20294;-70
2022/09/02 11:04:20;;;;;;;1.20;1.10;;;;;;;23.25;40.08;98012.91;5109662;28;20616;-70
2022/09/02 11:06:51;;;;;;;2.13;1.00;;;;;;;23.24;40.37;98009.38;5114615;28;20257;-71
2022/09/02 11:09:29;;;;;;;1.30;1.20;;;;;;;23.29;39.36;97998.84;5114722;28;20292;-70
2022/09/02 11:12:00;;;;;;;1.20;1.10;;;;;;;23.31;40.04;97996.81;5112069;28;20245;-71
2022/09/02 11:14:33;;;;;;;3.53;1.10;;;;;;;23.34;39.94;97995.59;5087657;28;20225;-70
2022/09/02 11:17:07;;;;;;;2.50;1.17;;;;;;;23.51;40.41;97997.88;5114539;28;20222;-70
2022/09/02 11:19:40;;;;;;;1.27;1.10;;;;;;;23.49;39.75;97991.84;5114422;28;20274;-71
2022/09/02 11:22:19;;;;;;;1.73;0.93;;;;;;;23.48;40.03;97986.63;5100798;28;20215;-70
2022/09/02 11:24:52;;;;;;;1.07;0.97;;;;;;;23.51;39.77;97983.53;5113949;28;20226;-71
2022/09/02 11:27:32;;;;;;;1.17;1.07;;;;;;;23.51;39.78;97984.38;5114524;28;20230;-71
2022/09/02 11:30:03;;;;;;;4.60;1.20;;;;;;;23.61;40.86;97987.63;5111902;28;20226;-71
2022/09/02 11:32:39;;;;;;;1.17;1.07;;;;;;;23.69;39.71;97990.19;5114300;28;20246;-71
2022/09/02 11:35:10;;;;;;;1.10;1.00;;;;;;;23.76;39.35;97980.28;5114439;28;20463;-71
2022/09/02 11:37:45;;;;;;;1.23;1.10;;;;;;;23.78;38.57;97977.41;5111480;28;20234;-71
2022/09/02 11:40:19;;;;;;;1.20;1.10;;;;;;;23.74;38.61;97979.66;5114201;28;20221;-70
2022/09/02 11:43:02;;;;;;;1.23;1.13;;;;;;;23.73;39.13;97983.41;5114195;28;20221;-71
2022/09/02 11:46:00;;;;;;;1.23;1.07;;;;;;;23.74;39.01;97981.50;5111392;28;20226;-71